Terminal Aerodrome Forecast
Issued by NWS San Angelo, TX

Home | Current Version | Previous Version | Text Only | Print | Product List | Glossary On
Versions: 1 2 3 4 5 6 7 8 9 10 11 12 13 14 15
000
FTUS44 KSJT 251151
TAFSJT
TAF
KSJT 251151Z 2512/2612 15007KT P6SM VCSH OVC060
      TEMPO 2512/2515 5SM -SHRA SCT035 OVC050
     FM251600 16012G18KT 5SM -SHRA SCT025 OVC040
     FM252000 16011KT 6SM -SHRA VCTS OVC040CB
     FM260000 13007KT P6SM VCSH OVC050
     FM260700 12005KT 5SM -SHRA OVC020=

USA.gov is the U.S. government's official web portal to all federal, state and local government web resources and services.